Carrick on Shannon, Ireland
Current Conditions -  °F | °C
As of 6:00 AM on Monday 24 Nov 2014 (Local Time) from EIKN Reporting Station
Broken Clouds Broken Clouds  
Wind Chill: 32°   Ceiling: 16000
Heat Index: 37°   Visibility: 6mi
Dew Point: 36°   Wind: 7mph
Humidity: 93%   Direction: 170°S
Pressure: 30.15"   Gusts: NA
Location:  53.95°N, 8.1°W
Report Text: EIKN 240600Z 17006KT 150V220 9999 FEW038 BKN160 03/02 Q1021 NOSIG
Loading
Personal Weather Stations






























Interactive Weather Map New forecast layout! Learn more

10-Day Weather Forecast

Advertisements
Track Severe Weather on mobile